Flight Briefing for CPX788

Departure Arrival
Incheon International Airport (RKSI)
Click to view FAA NOTAMS
Changi International Airport (WSSS)
Click to view FAA NOTAMS
Departure Time Arrival Time
N/A N/A
Aircraft Distance
B747-400BCF 2501nm
Departure METAR Arrival METAR
RKSI 181600Z 06003KT CAVOK 03/M04 Q1017 NOSIG WSSS 181600Z 02003KT 330V050 9000 FEW020 BKN300 27/22 Q1013 NOSIG
Suggested Route
BOPTA1K BOPTA Z51 BEDES Y711 MUGUS Y742 SALMI Q11 TACLE Q12 KABAM N892 VMR


View recent IFR Routes data
Notes



Charts and Procedures

Charts for RKSI
No chart available
Charts for WSSS
No chart available

Windy.com Weather Map